sensor_id;sensor_type;location;lat;lon;timestamp;pressure;altitude;pressure_sealevel;temperature;humidity
30463;BME280;17256;43.618;25.336;2023-03-25T00:02:14;99866.66;;;8.88;100.00
30463;BME280;17256;43.618;25.336;2023-03-25T00:05:13;100223.78;;;11.12;100.00
30463;BME280;17256;43.618;25.336;2023-03-25T00:08:39;99972.22;;;9.78;100.00
30463;BME280;17256;43.618;25.336;2023-03-25T00:18:56;100134.63;;;10.94;100.00
30463;BME280;17256;43.618;25.336;2023-03-25T00:21:49;100204.34;;;11.20;100.00
30463;BME280;17256;43.618;25.336;2023-03-25T00:28:16;100207.28;;;11.12;100.00
30463;BME280;17256;43.618;25.336;2023-03-25T00:39:17;99901.59;;;8.73;100.00
30463;BME280;17256;43.618;25.336;2023-03-25T00:41:55;99767.69;;;7.83;100.00
30463;BME280;17256;43.618;25.336;2023-03-25T00:44:32;99920.13;;;8.78;100.00
30463;BME280;17256;43.618;25.336;2023-03-25T00:47:07;99871.50;;;8.39;100.00
30463;BME280;17256;43.618;25.336;2023-03-25T00:50:03;100209.59;;;10.48;100.00
30463;BME280;17256;43.618;25.336;2023-03-25T00:53:50;99901.06;;;8.50;100.00
30463;BME280;17256;43.618;25.336;2023-03-25T01:00:16;99734.63;;;7.36;100.00
30463;BME280;17256;43.618;25.336;2023-03-25T01:03:12;100082.25;;;9.49;100.00
30463;BME280;17256;43.618;25.336;2023-03-25T01:06:14;100190.06;;;10.17;100.00
30463;BME280;17256;43.618;25.336;2023-03-25T01:09:34;99948.72;;;8.69;100.00
30463;BME280;17256;43.618;25.336;2023-03-25T01:13:13;100189.81;;;10.12;100.00
30463;BME280;17256;43.618;25.336;2023-03-25T01:16:27;99746.59;;;7.35;100.00
30463;BME280;17256;43.618;25.336;2023-03-25T01:19:13;99955.81;;;8.56;100.00
30463;BME280;17256;43.618;25.336;2023-03-25T01:22:13;100185.91;;;9.73;100.00
30463;BME280;17256;43.618;25.336;2023-03-25T01:25:07;100189.28;;;9.82;100.00
30463;BME280;17256;43.618;25.336;2023-03-25T01:31:14;100184.22;;;9.72;100.00
30463;BME280;17256;43.618;25.336;2023-03-25T01:34:06;100183.50;;;9.64;100.00
30463;BME280;17256;43.618;25.336;2023-03-25T01:37:20;100184.34;;;9.64;100.00
30463;BME280;17256;43.618;25.336;2023-03-25T01:48:16;99878.69;;;7.77;100.00
30463;BME280;17256;43.618;25.336;2023-03-25T01:55:53;99706.81;;;6.70;100.00
30463;BME280;17256;43.618;25.336;2023-03-25T01:59:31;99645.25;;;6.40;100.00
30463;BME280;17256;43.618;25.336;2023-03-25T02:07:00;100143.50;;;9.35;100.00
30463;BME280;17256;43.618;25.336;2023-03-25T02:10:19;100130.53;;;9.15;100.00
30463;BME280;17256;43.618;25.336;2023-03-25T02:13:11;99629.81;;;6.26;100.00
30463;BME280;17256;43.618;25.336;2023-03-25T02:23:28;99910.63;;;8.05;100.00
30463;BME280;17256;43.618;25.336;2023-03-25T02:37:21;100098.69;;;9.08;100.00
30463;BME280;17256;43.618;25.336;2023-03-25T02:41:15;99787.19;;;7.17;100.00
30463;BME280;17256;43.618;25.336;2023-03-25T02:44:32;99774.47;;;7.03;100.00
30463;BME280;17256;43.618;25.336;2023-03-25T02:48:20;99816.56;;;7.15;100.00
30463;BME280;17256;43.618;25.336;2023-03-25T03:59:40;99821.13;;;6.65;100.00
30463;BME280;17256;43.618;25.336;2023-03-25T04:02:50;100098.94;;;8.50;100.00
30463;BME280;17256;43.618;25.336;2023-03-25T04:06:05;100093.69;;;8.55;100.00
30463;BME280;17256;43.618;25.336;2023-03-25T04:12:48;99816.97;;;6.91;100.00
30463;BME280;17256;43.618;25.336;2023-03-25T04:20:14;100096.72;;;8.67;100.00
30463;BME280;17256;43.618;25.336;2023-03-25T04:23:44;100103.50;;;8.71;100.00
30463;BME280;17256;43.618;25.336;2023-03-25T04:27:26;99661.13;;;5.94;100.00
30463;BME280;17256;43.618;25.336;2023-03-25T04:30:34;100099.31;;;8.75;100.00
30463;BME280;17256;43.618;25.336;2023-03-25T04:40:18;99697.38;;;6.73;100.00
30463;BME280;17256;43.618;25.336;2023-03-25T04:44:06;100114.94;;;9.57;100.00
30463;BME280;17256;43.618;25.336;2023-03-25T04:48:08;99781.56;;;7.81;100.00
30463;BME280;17256;43.618;25.336;2023-03-25T04:51:14;100104.16;;;10.16;100.00
30463;BME280;17256;43.618;25.336;2023-03-25T04:54:54;100115.19;;;10.36;100.00
30463;BME280;17256;43.618;25.336;2023-03-25T04:58:01;99836.31;;;8.90;100.00
30463;BME280;17256;43.618;25.336;2023-03-25T05:04:46;99655.13;;;8.27;100.00
30463;BME280;17256;43.618;25.336;2023-03-25T05:07:36;99986.59;;;10.53;100.00
30463;BME280;17256;43.618;25.336;2023-03-25T05:10:56;99916.72;;;10.42;100.00
30463;BME280;17256;43.618;25.336;2023-03-25T05:13:35;99755.00;;;9.63;100.00
30463;BME280;17256;43.618;25.336;2023-03-25T05:20:07;100003.81;;;11.38;100.00
30463;BME280;17256;43.618;25.336;2023-03-25T05:23:48;100159.47;;;12.42;100.00
30463;BME280;17256;43.618;25.336;2023-03-25T05:26:22;99988.09;;;11.52;100.00
30463;BME280;17256;43.618;25.336;2023-03-25T05:29:20;100167.34;;;12.88;100.00
30463;BME280;17256;43.618;25.336;2023-03-25T05:32:20;99999.97;;;11.90;100.00
30463;BME280;17256;43.618;25.336;2023-03-25T05:41:14;99780.69;;;10.53;100.00
30463;BME280;17256;43.618;25.336;2023-03-25T05:43:53;100158.09;;;12.82;100.00
30463;BME280;17256;43.618;25.336;2023-03-25T05:49:32;99887.56;;;11.87;100.00
30463;BME280;17256;43.618;25.336;2023-03-25T05:52:03;99908.47;;;12.38;100.00
30463;BME280;17256;43.618;25.336;2023-03-25T05:57:42;100004.44;;;12.59;99.23
30463;BME280;17256;43.618;25.336;2023-03-25T06:00:12;99953.25;;;12.52;99.87
30463;BME280;17256;43.618;25.336;2023-03-25T06:02:39;99984.06;;;13.22;96.19
30463;BME280;17256;43.618;25.336;2023-03-25T06:05:18;100012.28;;;13.36;92.74
30463;BME280;17256;43.618;25.336;2023-03-25T06:13:27;99983.25;;;13.93;86.41
30463;BME280;17256;43.618;25.336;2023-03-25T06:15:58;100091.03;;;14.70;84.61
30463;BME280;17256;43.618;25.336;2023-03-25T06:18:24;99761.91;;;12.54;84.07
30463;BME280;17256;43.618;25.336;2023-03-25T06:21:15;99949.38;;;13.86;83.93
30463;BME280;17256;43.618;25.336;2023-03-25T06:23:45;100163.06;;;15.45;84.47
30463;BME280;17256;43.618;25.336;2023-03-25T06:26:15;100173.78;;;15.42;82.56
30463;BME280;17256;43.618;25.336;2023-03-25T06:28:42;99900.41;;;13.28;84.82
30463;BME280;17256;43.618;25.336;2023-03-25T06:31:13;100012.16;;;13.61;88.24
30463;BME280;17256;43.618;25.336;2023-03-25T06:33:43;100023.63;;;13.46;90.64
30463;BME280;17256;43.618;25.336;2023-03-25T06:36:11;100048.53;;;13.21;92.48
30463;BME280;17256;43.618;25.336;2023-03-25T06:38:38;99696.91;;;10.75;96.08
30463;BME280;17256;43.618;25.336;2023-03-25T06:41:15;99890.84;;;12.02;96.71
30463;BME280;17256;43.618;25.336;2023-03-25T06:43:48;100060.06;;;13.11;95.03
30463;BME280;17256;43.618;25.336;2023-03-25T06:46:38;99888.44;;;11.56;97.62
30463;BME280;17256;43.618;25.336;2023-03-25T06:49:19;99896.06;;;11.86;98.25
30463;BME280;17256;43.618;25.336;2023-03-25T06:52:10;100163.69;;;13.44;99.49
30463;BME280;17256;43.618;25.336;2023-03-25T06:54:40;100167.59;;;13.73;98.26
30463;BME280;17256;43.618;25.336;2023-03-25T06:57:06;99710.28;;;10.90;97.30
30463;BME280;17256;43.618;25.336;2023-03-25T06:59:32;100011.91;;;13.14;96.39
30463;BME280;17256;43.618;25.336;2023-03-25T07:02:09;100171.94;;;13.99;95.24
30463;BME280;17256;43.618;25.336;2023-03-25T07:04:42;100180.44;;;14.15;95.40
30463;BME280;17256;43.618;25.336;2023-03-25T07:07:08;100040.09;;;13.52;94.49
30463;BME280;17256;43.618;25.336;2023-03-25T07:09:37;100001.13;;;13.31;93.12
30463;BME280;17256;43.618;25.336;2023-03-25T07:15:43;100025.91;;;13.49;94.14
30463;BME280;17256;43.618;25.336;2023-03-25T07:18:18;99746.75;;;12.15;91.71
30463;BME280;17256;43.618;25.336;2023-03-25T07:20:50;99930.81;;;13.51;91.22
30463;BME280;17256;43.618;25.336;2023-03-25T07:24:54;100186.63;;;15.24;90.19
30463;BME280;17256;43.618;25.336;2023-03-25T07:39:09;99789.75;;;13.36;90.27
30463;BME280;17256;43.618;25.336;2023-03-25T07:41:37;99780.94;;;13.16;90.92
30463;BME280;17256;43.618;25.336;2023-03-25T07:44:09;100199.75;;;15.76;93.44
30463;BME280;17256;43.618;25.336;2023-03-25T07:46:37;99966.66;;;14.58;90.89
30463;BME280;17256;43.618;25.336;2023-03-25T07:49:35;100198.47;;;16.75;89.48
30463;BME280;17256;43.618;25.336;2023-03-25T07:55:59;100193.34;;;16.55;90.09
30463;BME280;17256;43.618;25.336;2023-03-25T07:59:08;99988.22;;;15.08;88.51
30463;BME280;17256;43.618;25.336;2023-03-25T08:02:24;100191.34;;;16.11;87.65
30463;BME280;17256;43.618;25.336;2023-03-25T08:04:55;99938.50;;;14.85;87.98
30463;BME280;17256;43.618;25.336;2023-03-25T08:07:26;99876.53;;;14.57;86.74
30463;BME280;17256;43.618;25.336;2023-03-25T08:09:54;99797.44;;;14.28;86.40
30463;BME280;17256;43.618;25.336;2023-03-25T08:12:23;99930.38;;;15.18;82.13
30463;BME280;17256;43.618;25.336;2023-03-25T08:14:57;100149.31;;;16.42;83.66
30463;BME280;17256;43.618;25.336;2023-03-25T08:18:30;99984.56;;;15.31;83.33
30463;BME280;17256;43.618;25.336;2023-03-25T08:21:07;100122.50;;;16.93;80.63
30463;BME280;17256;43.618;25.336;2023-03-25T08:23:34;99947.41;;;16.34;77.20
30463;BME280;17256;43.618;25.336;2023-03-25T08:26:01;100091.38;;;17.85;74.43
30463;BME280;17256;43.618;25.336;2023-03-25T08:28:27;100181.16;;;18.34;71.21
30463;BME280;17256;43.618;25.336;2023-03-25T08:31:08;99980.22;;;16.92;69.61
30463;BME280;17256;43.618;25.336;2023-03-25T08:33:40;99951.63;;;16.70;69.91
30463;BME280;17256;43.618;25.336;2023-03-25T08:36:10;100177.66;;;18.22;69.76
30463;BME280;17256;43.618;25.336;2023-03-25T08:38:40;99949.75;;;16.76;69.13
30463;BME280;17256;43.618;25.336;2023-03-25T08:41:07;99971.56;;;16.89;69.41
30463;BME280;17256;43.618;25.336;2023-03-25T08:43:34;99941.06;;;16.89;69.10
30463;BME280;17256;43.618;25.336;2023-03-25T08:46:22;100172.94;;;18.50;68.00
30463;BME280;17256;43.618;25.336;2023-03-25T08:49:09;99940.06;;;17.44;67.92
30463;BME280;17256;43.618;25.336;2023-03-25T08:52:22;99966.25;;;17.53;67.68
30463;BME280;17256;43.618;25.336;2023-03-25T08:55:14;99848.03;;;17.03;66.88
30463;BME280;17256;43.618;25.336;2023-03-25T08:57:42;100046.72;;;18.51;66.45
30463;BME280;17256;43.618;25.336;2023-03-25T09:00:12;99948.97;;;17.95;65.54
30463;BME280;17256;43.618;25.336;2023-03-25T09:02:38;100005.47;;;18.37;65.88
30463;BME280;17256;43.618;25.336;2023-03-25T09:05:09;100054.75;;;18.74;65.38
30463;BME280;17256;43.618;25.336;2023-03-25T09:07:36;99986.31;;;18.41;64.92
30463;BME280;17256;43.618;25.336;2023-03-25T09:10:03;100006.91;;;18.77;65.34
30463;BME280;17256;43.618;25.336;2023-03-25T09:12:33;100123.84;;;19.66;63.56
30463;BME280;17256;43.618;25.336;2023-03-25T09:14:59;100084.34;;;19.32;63.66
30463;BME280;17256;43.618;25.336;2023-03-25T09:17:25;99928.81;;;18.47;63.57
30463;BME280;17256;43.618;25.336;2023-03-25T09:20:00;100154.22;;;19.68;63.19
30463;BME280;17256;43.618;25.336;2023-03-25T09:22:35;99926.88;;;18.10;63.01
30463;BME280;17256;43.618;25.336;2023-03-25T09:25:01;99939.44;;;18.18;63.27
30463;BME280;17256;43.618;25.336;2023-03-25T09:27:29;99993.78;;;19.15;62.31
30463;BME280;17256;43.618;25.336;2023-03-25T09:30:08;99949.34;;;19.35;60.95
30463;BME280;17256;43.618;25.336;2023-03-25T09:32:53;99922.44;;;18.93;59.40
30463;BME280;17256;43.618;25.336;2023-03-25T09:35:27;99914.22;;;19.19;60.11
30463;BME280;17256;43.618;25.336;2023-03-25T09:37:57;100086.97;;;20.17;59.66
30463;BME280;17256;43.618;25.336;2023-03-25T09:40:24;100003.13;;;19.51;61.26
30463;BME280;17256;43.618;25.336;2023-03-25T09:45:41;100149.31;;;20.99;60.24
30463;BME280;17256;43.618;25.336;2023-03-25T09:50:51;100088.75;;;20.94;58.12
30463;BME280;17256;43.618;25.336;2023-03-25T09:53:51;99935.56;;;19.96;57.16
30463;BME280;17256;43.618;25.336;2023-03-25T09:56:40;99898.22;;;19.66;56.89
30463;BME280;17256;43.618;25.336;2023-03-25T09:59:35;100150.97;;;21.50;56.83
30463;BME280;17256;43.618;25.336;2023-03-25T10:18:33;99939.75;;;20.70;55.15
30463;BME280;17256;43.618;25.336;2023-03-25T10:26:18;99916.63;;;20.49;55.33
30463;BME280;17256;43.618;25.336;2023-03-25T10:29:12;100079.94;;;21.72;55.63
30463;BME280;17256;43.618;25.336;2023-03-25T10:31:52;99922.91;;;21.10;55.26
30463;BME280;17256;43.618;25.336;2023-03-25T10:34:43;100108.78;;;22.22;55.05
30463;BME280;17256;43.618;25.336;2023-03-25T10:37:16;100060.19;;;22.13;54.24
30463;BME280;17256;43.618;25.336;2023-03-25T10:39:46;100109.63;;;22.22;54.96
30463;BME280;17256;43.618;25.336;2023-03-25T10:45:01;100081.81;;;22.41;54.56
30463;BME280;17256;43.618;25.336;2023-03-25T10:47:45;100072.09;;;22.67;54.86
30463;BME280;17256;43.618;25.336;2023-03-25T10:53:47;100078.44;;;22.78;53.61
30463;BME280;17256;43.618;25.336;2023-03-25T10:56:50;99636.56;;;20.55;52.30
30463;BME280;17256;43.618;25.336;2023-03-25T10:59:43;100062.06;;;23.24;53.47
30463;BME280;17256;43.618;25.336;2023-03-25T11:02:41;99652.47;;;20.60;52.93
30463;BME280;17256;43.618;25.336;2023-03-25T11:05:34;99665.41;;;20.84;52.09
30463;BME280;17256;43.618;25.336;2023-03-25T11:08:10;99889.75;;;22.26;52.00
30463;BME280;17256;43.618;25.336;2023-03-25T11:10:36;99841.16;;;21.88;53.08
30463;BME280;17256;43.618;25.336;2023-03-25T11:13:12;99709.66;;;21.01;50.60
30463;BME280;17256;43.618;25.336;2023-03-25T11:16:09;100043.44;;;23.39;51.12
30463;BME280;17256;43.618;25.336;2023-03-25T11:18:52;99809.34;;;21.79;50.93
30463;BME280;17256;43.618;25.336;2023-03-25T11:21:34;99585.78;;;20.63;49.75
30463;BME280;17256;43.618;25.336;2023-03-25T11:24:17;99894.72;;;22.63;48.02
30463;BME280;17256;43.618;25.336;2023-03-25T11:26:45;99951.91;;;23.10;47.25
30463;BME280;17256;43.618;25.336;2023-03-25T11:29:19;99819.94;;;22.16;46.11
30463;BME280;17256;43.618;25.336;2023-03-25T11:32:13;100029.69;;;23.66;44.32
30463;BME280;17256;43.618;25.336;2023-03-25T11:35:17;100036.41;;;23.65;45.89
30463;BME280;17256;43.618;25.336;2023-03-25T11:38:13;99832.47;;;22.48;45.50
30463;BME280;17256;43.618;25.336;2023-03-25T11:41:08;99768.84;;;22.10;45.08
30463;BME280;17256;43.618;25.336;2023-03-25T11:43:50;99897.88;;;23.47;45.70
30463;BME280;17256;43.618;25.336;2023-03-25T11:46:20;100026.84;;;24.46;44.70
30463;BME280;17256;43.618;25.336;2023-03-25T11:48:46;99883.91;;;23.85;44.39
30463;BME280;17256;43.618;25.336;2023-03-25T11:54:00;99835.59;;;22.94;44.12
30463;BME280;17256;43.618;25.336;2023-03-25T11:56:36;99865.69;;;23.07;44.97
30463;BME280;17256;43.618;25.336;2023-03-25T11:59:22;99999.56;;;23.96;45.12
30463;BME280;17256;43.618;25.336;2023-03-25T12:07:49;99828.41;;;22.88;45.34
30463;BME280;17256;43.618;25.336;2023-03-25T12:42:36;99967.84;;;23.57;45.10
30463;BME280;17256;43.618;25.336;2023-03-25T12:46:01;99960.69;;;23.46;44.34
30463;BME280;17256;43.618;25.336;2023-03-25T13:08:19;99829.78;;;22.37;46.27
30463;BME280;17256;43.618;25.336;2023-03-25T13:10:54;99944.34;;;23.29;45.76
30463;BME280;17256;43.618;25.336;2023-03-25T13:13:30;99798.25;;;22.32;46.83
30463;BME280;17256;43.618;25.336;2023-03-25T13:16:09;99800.44;;;22.11;46.42
30463;BME280;17256;43.618;25.336;2023-03-25T13:18:44;99936.44;;;22.89;46.25
30463;BME280;17256;43.618;25.336;2023-03-25T13:23:46;99913.19;;;22.35;45.39
30463;BME280;17256;43.618;25.336;2023-03-25T13:26:20;99896.94;;;22.08;46.34
30463;BME280;17256;43.618;25.336;2023-03-25T13:28:52;99729.94;;;21.17;46.72
30463;BME280;17256;43.618;25.336;2023-03-25T13:31:33;99820.63;;;21.69;47.02
30463;BME280;17256;43.618;25.336;2023-03-25T13:34:27;99944.59;;;22.56;46.69
30463;BME280;17256;43.618;25.336;2023-03-25T13:46:43;99933.97;;;22.24;48.38
30463;BME280;17256;43.618;25.336;2023-03-25T13:52:07;99775.31;;;21.38;49.08
30463;BME280;17256;43.618;25.336;2023-03-25T13:54:44;99758.69;;;21.17;49.69
30463;BME280;17256;43.618;25.336;2023-03-25T14:02:33;99906.47;;;21.97;49.66
30463;BME280;17256;43.618;25.336;2023-03-25T14:13:35;99728.22;;;20.82;49.64
30463;BME280;17256;43.618;25.336;2023-03-25T14:16:09;99785.78;;;21.17;49.60
30463;BME280;17256;43.618;25.336;2023-03-25T14:18:45;99729.44;;;20.55;50.24
30463;BME280;17256;43.618;25.336;2023-03-25T14:24:19;99643.25;;;20.00;51.58
30463;BME280;17256;43.618;25.336;2023-03-25T14:27:21;99708.06;;;20.36;51.09
30463;BME280;17256;43.618;25.336;2023-03-25T14:29:59;99884.97;;;21.59;51.47
30463;BME280;17256;43.618;25.336;2023-03-25T14:32:41;99884.97;;;21.59;51.25
30463;BME280;17256;43.618;25.336;2023-03-25T14:43:42;99747.84;;;20.56;50.93
30463;BME280;17256;43.618;25.336;2023-03-25T14:46:35;99877.78;;;21.42;51.78
30463;BME280;17256;43.618;25.336;2023-03-25T14:55:41;99878.81;;;21.02;52.80
30463;BME280;17256;43.618;25.336;2023-03-25T14:58:52;99880.03;;;20.76;53.30
30463;BME280;17256;43.618;25.336;2023-03-25T15:01:19;99449.81;;;18.21;53.50
30463;BME280;17256;43.618;25.336;2023-03-25T15:03:46;99604.66;;;19.32;54.16
30463;BME280;17256;43.618;25.336;2023-03-25T15:06:17;99515.72;;;18.61;53.93
30463;BME280;17256;43.618;25.336;2023-03-25T15:08:57;99853.00;;;20.66;54.15
30463;BME280;17256;43.618;25.336;2023-03-25T15:11:36;99671.22;;;19.64;54.80
30463;BME280;17256;43.618;25.336;2023-03-25T15:17:08;99712.94;;;19.89;54.17
30463;BME280;17256;43.618;25.336;2023-03-25T15:22:36;99645.06;;;19.34;54.15
30463;BME280;17256;43.618;25.336;2023-03-25T15:25:10;99624.75;;;18.98;54.01
30463;BME280;17256;43.618;25.336;2023-03-25T15:27:57;99648.41;;;19.16;55.14
30463;BME280;17256;43.618;25.336;2023-03-25T15:33:56;99750.00;;;19.49;55.50
30463;BME280;17256;43.618;25.336;2023-03-25T15:36:51;99749.75;;;19.56;56.00
30463;BME280;17256;43.618;25.336;2023-03-25T15:54:58;99845.28;;;19.82;55.93
30463;BME280;17256;43.618;25.336;2023-03-25T15:58:12;99850.28;;;19.80;55.29
30463;BME280;17256;43.618;25.336;2023-03-25T16:00:46;99851.13;;;19.80;55.63
30463;BME280;17256;43.618;25.336;2023-03-25T16:03:27;99632.16;;;18.37;56.60
30463;BME280;17256;43.618;25.336;2023-03-25T16:05:59;99843.91;;;19.64;57.27
30463;BME280;17256;43.618;25.336;2023-03-25T16:08:39;99601.19;;;18.03;57.86
30463;BME280;17256;43.618;25.336;2023-03-25T16:11:31;99858.03;;;19.52;57.85
30463;BME280;17256;43.618;25.336;2023-03-25T16:17:10;99856.66;;;19.40;58.92
30463;BME280;17256;43.618;25.336;2023-03-25T16:19:50;99675.19;;;18.19;58.49
30463;BME280;17256;43.618;25.336;2023-03-25T16:22:31;99791.97;;;18.92;58.86
30463;BME280;17256;43.618;25.336;2023-03-25T16:25:03;99788.00;;;18.78;59.09
30463;BME280;17256;43.618;25.336;2023-03-25T16:27:35;99674.00;;;18.05;58.39
30463;BME280;17256;43.618;25.336;2023-03-25T16:30:17;99840.66;;;18.99;58.10
30463;BME280;17256;43.618;25.336;2023-03-25T16:32:43;99643.94;;;17.87;58.27
30463;BME280;17256;43.618;25.336;2023-03-25T16:36:20;99870.50;;;19.14;57.01
30463;BME280;17256;43.618;25.336;2023-03-25T16:38:56;99872.72;;;19.12;56.74
30463;BME280;17256;43.618;25.336;2023-03-25T16:41:34;99565.78;;;17.20;56.50
30463;BME280;17256;43.618;25.336;2023-03-25T16:44:01;99749.19;;;18.35;56.53
30463;BME280;17256;43.618;25.336;2023-03-25T16:46:34;99721.84;;;18.17;56.35
30463;BME280;17256;43.618;25.336;2023-03-25T16:49:01;99736.84;;;18.16;56.63
30463;BME280;17256;43.618;25.336;2023-03-25T16:51:31;99771.44;;;18.40;56.71
30463;BME280;17256;43.618;25.336;2023-03-25T16:54:07;99706.75;;;18.03;56.95
30463;BME280;17256;43.618;25.336;2023-03-25T16:56:37;99865.72;;;18.99;57.14
30463;BME280;17256;43.618;25.336;2023-03-25T16:59:15;99700.63;;;18.01;57.23
30463;BME280;17256;43.618;25.336;2023-03-25T17:01:53;99729.25;;;17.96;57.96
30463;BME280;17256;43.618;25.336;2023-03-25T17:04:21;99692.53;;;17.89;57.70
30463;BME280;17256;43.618;25.336;2023-03-25T17:06:56;99685.25;;;17.78;58.26
30463;BME280;17256;43.618;25.336;2023-03-25T17:09:28;99783.59;;;18.29;58.99
30463;BME280;17256;43.618;25.336;2023-03-25T17:12:07;99698.84;;;17.79;59.06
30463;BME280;17256;43.618;25.336;2023-03-25T17:14:37;99735.63;;;17.97;58.14
30463;BME280;17256;43.618;25.336;2023-03-25T17:17:33;99832.47;;;18.62;58.30
30463;BME280;17256;43.618;25.336;2023-03-25T17:20:04;99640.19;;;17.29;58.32
30463;BME280;17256;43.618;25.336;2023-03-25T17:22:37;99619.31;;;17.16;57.99
30463;BME280;17256;43.618;25.336;2023-03-25T17:25:32;99844.94;;;18.60;58.20
30463;BME280;17256;43.618;25.336;2023-03-25T17:30:49;99592.09;;;17.13;58.08
30463;BME280;17256;43.618;25.336;2023-03-25T17:33:31;99639.66;;;17.32;57.88
30463;BME280;17256;43.618;25.336;2023-03-25T17:36:02;99862.69;;;18.54;57.75
30463;BME280;17256;43.618;25.336;2023-03-25T17:38:39;99599.69;;;16.90;57.44
30463;BME280;17256;43.618;25.336;2023-03-25T17:41:08;99857.13;;;18.54;57.54
30463;BME280;17256;43.618;25.336;2023-03-25T17:43:40;99704.78;;;17.56;57.38
30463;BME280;17256;43.618;25.336;2023-03-25T17:48:47;99661.50;;;17.18;57.42
30463;BME280;17256;43.618;25.336;2023-03-25T17:51:15;99639.41;;;16.96;57.83
30463;BME280;17256;43.618;25.336;2023-03-25T17:53:41;99633.31;;;16.99;57.90
30463;BME280;17256;43.618;25.336;2023-03-25T17:56:10;99685.47;;;17.34;57.93
30463;BME280;17256;43.618;25.336;2023-03-25T17:58:38;99850.91;;;18.36;58.22
30463;BME280;17256;43.618;25.336;2023-03-25T18:01:08;99610.75;;;16.85;57.94
30463;BME280;17256;43.618;25.336;2023-03-25T18:03:37;99848.31;;;18.20;58.55
30463;BME280;17256;43.618;25.336;2023-03-25T18:06:06;99690.06;;;17.18;58.08
30463;BME280;17256;43.618;25.336;2023-03-25T18:08:32;99642.09;;;16.86;58.30
30463;BME280;17256;43.618;25.336;2023-03-25T18:10:59;99734.16;;;17.47;58.35
30463;BME280;17256;43.618;25.336;2023-03-25T18:13:37;99676.72;;;17.15;58.63
30463;BME280;17256;43.618;25.336;2023-03-25T18:18:54;99770.38;;;17.62;59.15
30463;BME280;17256;43.618;25.336;2023-03-25T18:21:20;99674.34;;;16.97;59.16
30463;BME280;17256;43.618;25.336;2023-03-25T18:23:48;99754.53;;;17.31;60.08
30463;BME280;17256;43.618;25.336;2023-03-25T18:26:17;99675.09;;;16.87;60.00
30463;BME280;17256;43.618;25.336;2023-03-25T18:28:44;99593.09;;;16.38;59.96
30463;BME280;17256;43.618;25.336;2023-03-25T18:31:13;99665.16;;;16.91;59.73
30463;BME280;17256;43.618;25.336;2023-03-25T18:33:54;99857.28;;;17.95;59.40
30463;BME280;17256;43.618;25.336;2023-03-25T18:36:27;99611.22;;;16.50;59.71
30463;BME280;17256;43.618;25.336;2023-03-25T18:39:04;99591.44;;;16.37;59.58
30463;BME280;17256;43.618;25.336;2023-03-25T18:41:32;99604.28;;;16.48;59.78
30463;BME280;17256;43.618;25.336;2023-03-25T18:44:07;99694.03;;;16.96;60.05
30463;BME280;17256;43.618;25.336;2023-03-25T18:46:34;99624.78;;;16.47;59.92
30463;BME280;17256;43.618;25.336;2023-03-25T18:49:00;99769.63;;;17.40;59.73
30463;BME280;17256;43.618;25.336;2023-03-25T18:51:31;99686.47;;;16.86;59.75
30463;BME280;17256;43.618;25.336;2023-03-25T18:53:56;99712.38;;;17.02;59.74
30463;BME280;17256;43.618;25.336;2023-03-25T18:56:26;99863.34;;;17.87;60.09
30463;BME280;17256;43.618;25.336;2023-03-25T18:59:06;99609.91;;;16.31;59.68
30463;BME280;17256;43.618;25.336;2023-03-25T19:01:51;99842.66;;;17.72;60.00
30463;BME280;17256;43.618;25.336;2023-03-25T19:04:16;99613.47;;;16.26;59.28
30463;BME280;17256;43.618;25.336;2023-03-25T19:06:42;99599.25;;;16.18;59.72
30463;BME280;17256;43.618;25.336;2023-03-25T19:09:16;99857.84;;;17.65;59.89
30463;BME280;17256;43.618;25.336;2023-03-25T19:11:47;99665.81;;;16.50;59.52
30463;BME280;17256;43.618;25.336;2023-03-25T19:14:21;99753.16;;;17.01;59.27
30463;BME280;17256;43.618;25.336;2023-03-25T19:16:46;99608.22;;;16.03;59.70
30463;BME280;17256;43.618;25.336;2023-03-25T19:19:12;99661.19;;;16.34;59.99
30463;BME280;17256;43.618;25.336;2023-03-25T19:21:41;99583.44;;;15.91;60.06
30463;BME280;17256;43.618;25.336;2023-03-25T19:24:24;99688.16;;;16.38;60.27
30463;BME280;17256;43.618;25.336;2023-03-25T19:26:57;99809.06;;;17.15;60.00
30463;BME280;17256;43.618;25.336;2023-03-25T19:29:25;99863.25;;;17.49;60.10
30463;BME280;17256;43.618;25.336;2023-03-25T19:32:04;99631.34;;;16.14;60.01
30463;BME280;17256;43.618;25.336;2023-03-25T19:34:32;99745.09;;;16.73;60.47
30463;BME280;17256;43.618;25.336;2023-03-25T19:36:58;99535.53;;;15.47;60.11
30463;BME280;17256;43.618;25.336;2023-03-25T19:39:27;99757.03;;;16.73;60.10
30463;BME280;17256;43.618;25.336;2023-03-25T19:41:56;99718.78;;;16.53;59.88
30463;BME280;17256;43.618;25.336;2023-03-25T19:44:31;99723.13;;;16.44;60.02
30463;BME280;17256;43.618;25.336;2023-03-25T19:47:03;99864.00;;;17.40;59.87
30463;BME280;17256;43.618;25.336;2023-03-25T19:49:30;99721.97;;;16.40;60.12
30463;BME280;17256;43.618;25.336;2023-03-25T19:51:56;99676.16;;;16.11;60.14
30463;BME280;17256;43.618;25.336;2023-03-25T19:54:21;99632.44;;;15.91;60.41
30463;BME280;17256;43.618;25.336;2023-03-25T19:57:06;99859.38;;;17.23;60.51
30463;BME280;17256;43.618;25.336;2023-03-25T19:59:41;99653.69;;;16.07;60.15
30463;BME280;17256;43.618;25.336;2023-03-25T20:02:24;99584.81;;;15.67;60.96
30463;BME280;17256;43.618;25.336;2023-03-25T20:04:51;99829.19;;;17.05;61.46
30463;BME280;17256;43.618;25.336;2023-03-25T20:07:17;99698.78;;;16.24;61.31
30463;BME280;17256;43.618;25.336;2023-03-25T20:09:45;99680.22;;;16.03;61.56
30463;BME280;17256;43.618;25.336;2023-03-25T20:12:18;99692.34;;;16.19;61.85